Time;durP1;ratioP1;P1;durP2;ratioP2;P2;SDS_P1;SDS_P2;PMS_P1;PMS_P2;Temp;Humidity;BMP_temperature;BMP_pressure;BME280_temperature;BME280_humidity;BME280_pressure;Samples;Min_cycle;Max_cycle;Signal;HPM_P1;HPM_P2
2022/06/24 00:02:20;;;;;;;2.90;2.28;;;;;;;24.42;46.31;100909.22;5032626;28;20447;-60
2022/06/24 00:04:54;;;;;;;3.20;2.40;;;;;;;24.43;47.00;100897.81;5049943;28;20407;-60
2022/06/24 00:07:19;;;;;;;3.65;2.08;;;;;;;24.39;46.63;100894.31;5043893;28;20449;-60
2022/06/24 00:09:45;;;;;;;3.37;2.10;;;;;;;24.42;46.62;100904.81;5044259;28;20407;-59
2022/06/24 00:12:13;;;;;;;2.53;2.20;;;;;;;24.40;46.22;100903.09;5047325;28;20868;-60
2022/06/24 00:14:42;;;;;;;2.58;2.10;;;;;;;24.31;46.20;100885.56;5041447;28;20409;-60
2022/06/24 00:17:12;;;;;;;2.70;2.20;;;;;;;24.40;46.45;100896.06;5048704;28;20403;-59
2022/06/24 00:19:53;;;;;;;2.85;2.10;;;;;;;24.38;46.33;100889.94;5035069;28;20395;-60
2022/06/24 00:22:21;;;;;;;3.72;2.40;;;;;;;24.37;46.38;100890.81;5043520;28;20886;-60
2022/06/24 00:24:46;;;;;;;3.60;2.30;;;;;;;24.37;45.82;100885.53;5033763;28;20473;-61
2022/06/24 00:27:22;;;;;;;2.95;2.20;;;;;;;24.34;46.11;100880.28;5043045;28;20911;-60
2022/06/24 00:29:51;;;;;;;3.38;2.50;;;;;;;24.40;46.71;100892.56;5051916;28;20372;-60
2022/06/24 00:32:33;;;;;;;3.97;2.20;;;;;;;24.38;46.29;100887.28;5043207;28;20884;-60
2022/06/24 00:35:14;;;;;;;3.80;2.13;;;;;;;24.38;46.41;100886.41;5049902;28;21391;-60
2022/06/24 00:37:41;;;;;;;3.00;2.28;;;;;;;24.37;45.83;100880.28;5040765;28;20405;-60
2022/06/24 00:40:09;;;;;;;3.00;2.30;;;;;;;24.39;45.75;100882.88;5049674;28;20806;-60
2022/06/24 00:42:44;;;;;;;2.80;2.20;;;;;;;24.37;45.92;100880.28;5042155;28;20390;-60
2022/06/24 00:45:36;;;;;;;2.20;2.00;;;;;;;24.39;45.85;100877.63;5030924;28;20892;-60
2022/06/24 00:48:07;;;;;;;2.80;2.20;;;;;;;24.38;45.86;100876.78;5023168;28;20401;-59
2022/06/24 00:50:33;;;;;;;2.35;2.10;;;;;;;24.37;45.89;100875.00;5044414;28;20396;-60
2022/06/24 00:53:00;;;;;;;3.20;2.25;;;;;;;24.35;45.99;100877.63;5031167;28;20398;-60
2022/06/24 00:55:36;;;;;;;3.70;2.40;;;;;;;24.36;45.89;100874.13;5062599;28;20399;-60
2022/06/24 00:58:02;;;;;;;2.65;2.10;;;;;;;24.31;45.64;100860.13;5051443;28;20415;-60
2022/06/24 01:00:31;;;;;;;3.28;2.13;;;;;;;24.35;46.17;100866.25;5050776;28;21052;-60
2022/06/24 01:03:00;;;;;;;2.92;2.20;;;;;;;24.35;45.14;100861.84;5027132;28;20484;-60
2022/06/24 01:05:29;;;;;;;3.08;2.40;;;;;;;24.28;45.55;100843.47;5049149;28;20422;-60
2022/06/24 01:07:55;;;;;;;2.80;2.20;;;;;;;24.34;46.02;100854.84;5034757;28;20390;-60
2022/06/24 01:10:23;;;;;;;4.10;2.20;;;;;;;24.34;45.89;100860.09;5041341;28;20411;-59
2022/06/24 01:12:52;;;;;;;2.70;2.15;;;;;;;24.35;46.02;100850.47;5052529;28;20447;-60
2022/06/24 01:15:18;;;;;;;2.72;2.20;;;;;;;24.34;45.56;100849.56;5054078;28;20397;-59
2022/06/24 01:17:43;;;;;;;3.22;2.25;;;;;;;24.33;45.82;100841.69;5053733;28;20381;-60
2022/06/24 01:20:10;;;;;;;3.10;2.27;;;;;;;24.34;45.59;100841.69;5025414;28;20388;-61
2022/06/24 01:22:38;;;;;;;4.18;2.67;;;;;;;24.35;44.85;100839.94;5043098;28;20786;-60
2022/06/24 01:25:08;;;;;;;3.17;2.20;;;;;;;24.34;45.29;100843.44;5051257;28;20787;-60
2022/06/24 01:27:33;;;;;;;2.67;2.20;;;;;;;24.18;45.41;100804.06;5049435;28;20388;-60
2022/06/24 01:29:58;;;;;;;3.03;2.30;;;;;;;24.32;45.03;100824.16;5051450;28;20746;-60
2022/06/24 01:32:24;;;;;;;3.30;2.40;;;;;;;24.33;45.30;100825.91;5048487;28;20433;-60
2022/06/24 01:34:49;;;;;;;2.77;2.10;;;;;;;24.31;45.09;100823.28;5061960;28;20390;-60
2022/06/24 01:37:15;;;;;;;3.47;2.13;;;;;;;24.29;45.41;100808.38;5032794;28;20405;-60
2022/06/24 01:39:40;;;;;;;3.25;2.38;;;;;;;24.33;44.91;100815.38;5043898;28;20727;-60
2022/06/24 01:42:06;;;;;;;3.30;2.03;;;;;;;24.29;45.38;100814.50;5053969;28;20394;-59
2022/06/24 01:44:37;;;;;;;2.90;2.30;;;;;;;24.30;45.55;100820.66;5053757;28;20401;-60
2022/06/24 01:47:03;;;;;;;2.72;2.15;;;;;;;24.31;45.33;100818.00;5052720;28;20405;-59
2022/06/24 01:49:28;;;;;;;4.20;2.40;;;;;;;24.31;45.03;100817.16;5052850;28;20408;-59
2022/06/24 01:51:55;;;;;;;2.70;2.20;;;;;;;24.31;45.48;100817.16;5051540;28;20397;-60
2022/06/24 01:54:20;;;;;;;2.25;2.03;;;;;;;24.29;44.77;100809.25;5030192;28;20426;-60
2022/06/24 01:56:46;;;;;;;2.42;2.20;;;;;;;24.31;44.80;100804.84;5020070;28;20388;-59
2022/06/24 01:59:15;;;;;;;3.65;2.10;;;;;;;24.32;44.54;100803.09;5065167;28;20382;-60
2022/06/24 02:01:45;;;;;;;3.88;2.10;;;;;;;24.16;44.76;100775.97;5070050;28;20458;-60
2022/06/24 02:04:11;;;;;;;2.70;2.20;;;;;;;24.31;45.16;100806.63;5036885;28;20515;-60
2022/06/24 02:06:37;;;;;;;3.57;2.40;;;;;;;24.30;44.83;100799.59;5053059;28;20870;-59
2022/06/24 02:09:03;;;;;;;2.47;2.10;;;;;;;24.29;44.88;100795.22;5046851;28;20430;-60
2022/06/24 02:14:14;;;;;;;3.08;2.22;;;;;;;24.27;44.89;100784.69;5049476;28;20381;-60
2022/06/24 02:16:39;;;;;;;2.58;2.20;;;;;;;24.28;45.04;100790.84;5034856;28;20508;-60
2022/06/24 02:19:06;;;;;;;2.70;2.10;;;;;;;24.27;45.21;100779.44;5067269;28;20426;-60
2022/06/24 02:21:34;;;;;;;3.10;2.13;;;;;;;24.17;45.06;100757.56;5045839;28;20862;-59
2022/06/24 02:23:59;;;;;;;2.83;2.30;;;;;;;24.29;44.40;100776.81;5041042;28;20402;-60
2022/06/24 02:26:25;;;;;;;2.90;2.20;;;;;;;24.28;44.69;100765.38;5039814;28;20409;-60
2022/06/24 02:28:54;;;;;;;2.63;2.03;;;;;;;24.30;45.01;100770.66;5028853;28;20389;-60
2022/06/24 02:31:20;;;;;;;3.30;2.30;;;;;;;24.28;44.83;100769.78;5026033;28;20553;-59
2022/06/24 02:33:48;;;;;;;2.70;2.20;;;;;;;24.27;44.81;100770.66;5038584;28;20492;-60
2022/06/24 02:36:14;;;;;;;3.38;2.33;;;;;;;24.25;45.02;100764.53;5071343;28;20394;-59
2022/06/24 02:42:02;;;;;;;3.42;2.10;;;;;;;24.24;44.22;100758.41;5078856;22;20445;-60
2022/06/24 02:44:27;;;;;;;2.50;2.10;;;;;;;24.26;44.59;100761.03;5061142;28;21821;-59
2022/06/24 02:46:52;;;;;;;2.77;2.30;;;;;;;24.23;44.79;100753.16;5052827;28;20819;-60
2022/06/24 02:49:18;;;;;;;3.10;2.20;;;;;;;24.26;44.17;100761.88;5048620;28;20473;-59
2022/06/24 02:51:43;;;;;;;2.47;2.00;;;;;;;24.25;44.77;100746.13;5049678;28;20384;-60
2022/06/24 02:54:11;;;;;;;2.93;2.30;;;;;;;24.26;44.81;100753.13;5040935;28;20397;-60
2022/06/24 02:56:36;;;;;;;2.70;2.30;;;;;;;24.26;44.34;100755.78;5067746;28;20730;-60
2022/06/24 02:59:04;;;;;;;2.77;2.10;;;;;;;24.25;44.07;100743.50;5083961;28;20407;-60
2022/06/24 03:01:29;;;;;;;3.35;2.28;;;;;;;24.24;43.87;100739.13;5072080;28;20860;-61
2022/06/24 03:03:55;;;;;;;2.85;2.20;;;;;;;24.26;44.21;100740.84;5052091;28;20446;-59
2022/06/24 03:06:20;;;;;;;3.00;2.30;;;;;;;24.26;44.24;100724.19;5056178;28;20442;-60
2022/06/24 03:08:51;;;;;;;3.80;2.30;;;;;;;24.25;44.11;100722.44;5090675;28;20471;-60
2022/06/24 03:11:17;;;;;;;2.47;2.15;;;;;;;24.25;43.75;100728.56;5072535;28;20400;-60
2022/06/24 03:13:44;;;;;;;3.03;2.10;;;;;;;24.26;44.78;100730.31;5058423;28;20394;-60
2022/06/24 03:16:10;;;;;;;2.60;2.20;;;;;;;24.24;44.38;100720.69;5059804;28;20900;-60
2022/06/24 03:18:35;;;;;;;3.13;2.20;;;;;;;24.25;44.70;100717.19;5044581;28;20377;-61
2022/06/24 03:21:00;;;;;;;3.87;2.30;;;;;;;24.24;44.61;100720.69;5067015;28;20388;-60
2022/06/24 03:23:26;;;;;;;3.47;2.20;;;;;;;24.24;44.55;100718.06;5071437;28;20388;-61
2022/06/24 03:25:54;;;;;;;2.77;2.20;;;;;;;24.23;44.56;100714.53;5055168;28;20395;-61
2022/06/24 03:28:19;;;;;;;2.67;2.00;;;;;;;24.24;44.11;100711.03;5087891;28;20419;-61
2022/06/24 03:30:45;;;;;;;2.97;2.20;;;;;;;24.24;44.19;100710.16;5055841;28;20880;-60
2022/06/24 03:33:10;;;;;;;3.30;2.20;;;;;;;24.23;44.01;100697.91;5091892;28;20406;-61
2022/06/24 03:35:43;;;;;;;3.17;2.40;;;;;;;24.26;43.79;100695.25;5081723;28;20396;-60
2022/06/24 03:38:09;;;;;;;3.38;2.20;;;;;;;24.27;44.27;100705.75;5082265;28;20409;-60
2022/06/24 03:40:34;;;;;;;3.70;2.33;;;;;;;24.27;44.60;100694.34;5072349;28;20392;-60
2022/06/24 03:42:59;;;;;;;2.87;2.33;;;;;;;24.28;44.44;100690.84;5073817;28;20407;-60
2022/06/24 03:45:25;;;;;;;2.67;2.20;;;;;;;24.24;43.53;100683.84;5093821;28;20902;-60
2022/06/24 03:47:53;;;;;;;3.07;2.20;;;;;;;24.27;43.66;100687.31;5093078;28;20879;-60
2022/06/24 03:50:18;;;;;;;3.92;2.33;;;;;;;24.30;43.24;100675.91;5074364;28;20869;-60
2022/06/24 03:52:44;;;;;;;3.37;2.20;;;;;;;24.30;44.07;100668.03;5072368;28;20375;-60
2022/06/24 03:55:09;;;;;;;3.17;2.10;;;;;;;24.29;43.59;100666.28;5059762;28;20380;-60
2022/06/24 03:57:36;;;;;;;4.63;2.20;;;;;;;24.28;43.91;100664.53;5075613;28;20406;-61
2022/06/24 04:00:01;;;;;;;3.33;2.28;;;;;;;24.32;43.84;100666.25;5074424;28;20370;-61
2022/06/24 04:02:27;;;;;;;3.97;2.45;;;;;;;24.30;43.82;100663.63;5055900;28;20712;-60
2022/06/24 04:04:55;;;;;;;3.13;2.20;;;;;;;24.15;43.69;100637.41;5055132;28;20443;-61
2022/06/24 04:07:20;;;;;;;2.83;2.20;;;;;;;24.30;43.59;100652.22;5089435;28;20388;-60
2022/06/24 04:09:46;;;;;;;2.80;2.20;;;;;;;24.32;43.23;100651.31;5059616;28;20395;-60
2022/06/24 04:12:12;;;;;;;3.33;2.33;;;;;;;24.31;43.43;100648.72;5074554;28;20395;-61
2022/06/24 04:17:22;;;;;;;3.10;2.38;;;;;;;24.36;43.68;100646.91;5077834;28;20419;-60
2022/06/24 04:19:47;;;;;;;3.00;2.37;;;;;;;24.34;43.40;100635.53;5075762;28;20419;-60
2022/06/24 04:22:12;;;;;;;3.60;2.10;;;;;;;24.36;43.89;100646.91;5072177;28;20435;-60
2022/06/24 04:24:38;;;;;;;3.70;2.20;;;;;;;24.35;43.50;100635.50;5056002;28;20390;-60
2022/06/24 04:27:03;;;;;;;3.60;2.17;;;;;;;24.36;43.13;100646.91;5065641;28;20396;-61
2022/06/24 04:29:29;;;;;;;2.83;2.22;;;;;;;24.34;43.38;100646.06;5075537;28;20469;-60
2022/06/24 04:31:56;;;;;;;2.75;2.20;;;;;;;24.36;43.08;100641.66;5063485;28;20451;-60
2022/06/24 04:34:22;;;;;;;2.70;2.20;;;;;;;24.36;43.43;100646.91;5073949;28;20401;-60
2022/06/24 04:36:47;;;;;;;3.10;2.33;;;;;;;24.35;43.87;100634.63;5066482;28;20402;-60
2022/06/24 04:39:15;;;;;;;3.73;2.43;;;;;;;24.36;43.87;100631.13;5047122;28;20373;-60
2022/06/24 04:41:40;;;;;;;4.43;2.35;;;;;;;24.33;44.18;100620.63;5082382;28;20475;-60
2022/06/24 04:44:06;;;;;;;3.10;2.45;;;;;;;24.36;43.51;100625.84;5070944;28;20400;-60
2022/06/24 04:46:31;;;;;;;3.57;2.10;;;;;;;24.33;43.27;100620.63;5058115;28;20431;-61
2022/06/24 04:48:56;;;;;;;3.53;2.20;;;;;;;24.39;43.25;100624.94;5055354;28;20768;-60
2022/06/24 04:51:22;;;;;;;3.20;2.50;;;;;;;24.39;43.98;100625.84;5092022;28;20380;-61
2022/06/24 04:53:48;;;;;;;2.77;2.27;;;;;;;24.39;43.53;100625.84;5070805;28;20410;-61
2022/06/24 04:56:13;;;;;;;2.90;2.10;;;;;;;24.39;43.50;100620.56;5092546;28;20879;-61
2022/06/24 04:58:38;;;;;;;3.85;2.40;;;;;;;24.39;44.50;100615.31;5093166;28;20376;-61
2022/06/24 05:01:04;;;;;;;3.30;2.50;;;;;;;24.39;44.21;100619.69;5061088;28;20432;-60
2022/06/24 05:03:29;;;;;;;3.35;2.30;;;;;;;24.38;44.18;100610.03;5057424;28;20400;-61
2022/06/24 05:05:54;;;;;;;4.90;2.40;;;;;;;24.35;43.83;100603.06;5055586;28;20398;-60
2022/06/24 05:08:20;;;;;;;2.60;2.10;;;;;;;24.40;44.04;100611.78;5073197;28;20880;-60
2022/06/24 05:10:45;;;;;;;2.77;2.20;;;;;;;24.39;43.92;100602.16;5058608;28;20464;-60
2022/06/24 05:13:10;;;;;;;2.50;2.30;;;;;;;24.40;44.13;100603.88;5054701;28;20382;-60
2022/06/24 05:15:36;;;;;;;3.63;2.30;;;;;;;24.42;44.00;100604.75;5084231;28;20407;-60
2022/06/24 05:18:02;;;;;;;3.33;2.40;;;;;;;24.45;43.84;100603.88;5088839;28;20928;-61
2022/06/24 05:20:28;;;;;;;2.85;2.50;;;;;;;24.39;43.78;100588.97;5073403;28;20493;-60
2022/06/24 05:22:54;;;;;;;3.30;2.30;;;;;;;24.45;44.21;100599.47;5090479;28;20392;-61
2022/06/24 05:25:19;;;;;;;3.83;2.30;;;;;;;24.44;43.81;100592.44;5072331;28;20841;-60
2022/06/24 05:27:44;;;;;;;3.17;2.30;;;;;;;24.45;44.23;100588.94;5092766;28;20391;-61
2022/06/24 05:30:10;;;;;;;2.83;2.27;;;;;;;24.44;44.23;100587.19;5075075;28;20955;-60
2022/06/24 05:32:36;;;;;;;3.13;2.50;;;;;;;24.45;44.56;100599.47;5057668;28;20384;-60
2022/06/24 05:37:40;;;;;;;3.70;2.22;;;;;;;24.46;44.16;100590.66;4921018;23;20432;-61
2022/06/24 05:40:06;;;;;;;3.23;2.47;;;;;;;24.46;43.74;100585.41;5062774;28;20391;-60
2022/06/24 05:42:35;;;;;;;2.72;2.20;;;;;;;24.45;43.40;100583.66;5057487;28;20368;-60
2022/06/24 05:45:03;;;;;;;2.92;2.30;;;;;;;24.44;43.73;100576.66;5057767;28;20392;-61
2022/06/24 05:47:28;;;;;;;3.22;2.40;;;;;;;24.47;43.76;100574.00;5056405;28;20410;-60
2022/06/24 05:49:57;;;;;;;7.85;2.88;;;;;;;24.45;43.79;100578.41;5079348;28;20400;-60
2022/06/24 05:55:06;;;;;;;31.23;9.95;;;;;;;24.47;44.00;100566.09;5080220;28;20415;-60
2022/06/24 05:57:34;;;;;;;42.28;11.15;;;;;;;24.44;44.32;100571.38;5084108;28;20851;-60
2022/06/24 06:00:06;;;;;;;32.97;9.53;;;;;;;24.45;43.84;100567.88;5056441;28;20408;-60
2022/06/24 06:02:34;;;;;;;34.60;8.82;;;;;;;24.47;44.65;100560.84;5069862;28;20787;-60
2022/06/24 06:04:59;;;;;;;32.83;9.73;;;;;;;24.42;45.09;100546.84;5084572;28;20398;-60
2022/06/24 06:07:25;;;;;;;23.77;7.90;;;;;;;24.47;45.08;100555.56;5049993;28;20395;-61
2022/06/24 06:09:50;;;;;;;26.83;8.73;;;;;;;24.51;45.20;100556.41;5072482;28;20851;-60
2022/06/24 06:12:16;;;;;;;23.42;6.97;;;;;;;24.49;45.60;100548.53;5074197;28;20372;-60
2022/06/24 06:14:41;;;;;;;22.13;6.80;;;;;;;24.45;45.65;100541.53;5074392;28;20836;-61
2022/06/24 06:17:07;;;;;;;21.33;6.50;;;;;;;24.51;45.94;100551.16;5065668;28;20388;-60
2022/06/24 06:19:34;;;;;;;22.67;7.55;;;;;;;24.49;45.87;100548.53;5045720;28;20875;-60
2022/06/24 06:22:00;;;;;;;20.75;6.53;;;;;;;24.48;45.37;100536.25;5083375;28;20399;-61
2022/06/24 06:24:26;;;;;;;19.25;7.05;;;;;;;24.51;45.57;100552.00;5073480;28;20403;-61
2022/06/24 06:26:54;;;;;;;21.63;6.97;;;;;;;24.49;45.87;100540.63;5088374;28;20467;-60
2022/06/24 06:29:19;;;;;;;18.90;5.68;;;;;;;24.49;45.32;100538.00;5059813;28;20385;-61
2022/06/24 06:31:44;;;;;;;15.33;5.80;;;;;;;24.45;45.87;100535.44;5053775;28;20381;-59
2022/06/24 06:34:10;;;;;;;14.20;5.20;;;;;;;24.49;45.46;100538.00;5053904;28;20382;-59
2022/06/24 06:36:35;;;;;;;15.40;5.70;;;;;;;24.50;45.61;100555.53;5081759;28;20425;-59
2022/06/24 06:39:00;;;;;;;16.43;5.77;;;;;;;24.49;45.38;100551.16;5091551;28;20372;-59
2022/06/24 06:41:26;;;;;;;13.18;5.30;;;;;;;24.48;45.23;100557.31;5056752;28;20427;-60
2022/06/24 06:43:51;;;;;;;15.03;5.50;;;;;;;24.51;46.05;100575.72;5073925;28;20392;-59
2022/06/24 06:46:16;;;;;;;16.35;5.78;;;;;;;24.51;45.98;100573.06;5068062;28;20400;-60
2022/06/24 06:48:42;;;;;;;14.37;5.83;;;;;;;24.51;45.42;100565.19;5070445;28;20376;-59
2022/06/24 06:51:07;;;;;;;12.00;5.23;;;;;;;24.50;46.07;100562.56;5048101;28;20384;-60
2022/06/24 06:53:33;;;;;;;12.23;5.35;;;;;;;24.49;46.59;100553.78;5057524;28;20431;-59
2022/06/24 06:55:58;;;;;;;11.10;5.33;;;;;;;24.47;46.40;100560.84;5058141;28;20400;-60
2022/06/24 06:58:26;;;;;;;12.23;5.03;;;;;;;24.49;46.04;100559.06;5059079;28;20377;-60
2022/06/24 07:00:51;;;;;;;9.95;4.90;;;;;;;24.45;45.84;100557.34;5053200;28;20387;-59
2022/06/24 07:03:17;;;;;;;8.73;4.93;;;;;;;24.47;45.74;100555.56;5073553;28;20399;-59
2022/06/24 07:05:43;;;;;;;13.50;5.07;;;;;;;24.50;45.70;100566.06;5063946;28;20808;-60
2022/06/24 07:08:11;;;;;;;12.60;4.90;;;;;;;24.45;45.40;100552.06;5087062;28;20378;-59
2022/06/24 07:10:38;;;;;;;9.98;4.85;;;;;;;24.51;46.34;100567.81;5053357;28;20859;-60
2022/06/24 07:13:03;;;;;;;11.23;4.63;;;;;;;24.50;45.80;100559.94;5067691;28;20815;-60
2022/06/24 07:15:28;;;;;;;10.37;4.40;;;;;;;24.51;45.93;100565.19;5068934;28;20456;-59
2022/06/24 07:17:54;;;;;;;10.17;4.77;;;;;;;24.51;46.34;100557.28;5056597;28;20380;-60
2022/06/24 07:20:19;;;;;;;9.03;4.20;;;;;;;24.53;45.72;100553.75;5056613;28;20384;-60
2022/06/24 07:22:45;;;;;;;8.37;4.27;;;;;;;24.54;46.15;100560.75;5064120;28;20403;-60
2022/06/24 07:25:10;;;;;;;9.60;4.43;;;;;;;24.50;45.63;100545.00;5071395;28;20380;-60
2022/06/24 07:27:35;;;;;;;8.00;4.50;;;;;;;24.49;45.69;100538.00;5053430;28;20420;-58
2022/06/24 07:30:05;;;;;;;9.30;4.30;;;;;;;24.52;45.78;100537.09;5053577;28;20495;-59
2022/06/24 07:32:32;;;;;;;9.03;4.50;;;;;;;24.49;45.71;100532.72;5068853;28;20771;-60
2022/06/24 07:35:01;;;;;;;8.82;4.30;;;;;;;24.49;45.73;100535.38;5054451;28;20709;-59
2022/06/24 07:37:26;;;;;;;9.23;3.90;;;;;;;24.54;45.86;100529.19;5068341;28;20388;-59
2022/06/24 07:39:51;;;;;;;8.50;4.43;;;;;;;24.56;45.60;100532.66;5091464;28;20444;-59
2022/06/24 07:42:17;;;;;;;7.63;4.17;;;;;;;24.53;45.17;100527.44;5063875;28;20883;-60
2022/06/24 07:44:44;;;;;;;7.45;4.00;;;;;;;24.56;45.30;100532.66;5064411;28;20478;-59
2022/06/24 07:47:10;;;;;;;8.95;4.15;;;;;;;24.54;45.92;100531.81;5071413;28;20459;-60
2022/06/24 07:49:36;;;;;;;7.97;4.20;;;;;;;24.51;45.96;100528.31;5053305;28;20432;-60
2022/06/24 07:52:02;;;;;;;7.27;3.80;;;;;;;24.51;46.03;100515.16;5064288;28;20404;-60
2022/06/24 07:54:33;;;;;;;7.53;4.10;;;;;;;24.51;45.60;100523.06;5086592;28;20399;-59
2022/06/24 07:56:58;;;;;;;7.00;3.92;;;;;;;24.52;46.02;100516.03;5056522;28;20380;-60
2022/06/24 07:59:28;;;;;;;7.73;3.93;;;;;;;24.55;45.23;100521.28;5091232;28;20728;-59
2022/06/24 08:01:55;;;;;;;6.13;4.47;;;;;;;24.55;45.54;100525.66;5072995;28;20722;-59
2022/06/24 08:04:21;;;;;;;7.90;4.30;;;;;;;24.54;45.16;100516.00;5054290;28;20398;-60
2022/06/24 08:06:49;;;;;;;5.80;3.72;;;;;;;24.54;45.26;100518.66;5064062;28;20888;-60
2022/06/24 08:09:22;;;;;;;6.00;3.70;;;;;;;24.55;45.84;100509.84;5073012;28;20960;-60
2022/06/24 08:11:47;;;;;;;6.15;3.72;;;;;;;24.55;45.58;100521.28;5073160;28;20437;-60
2022/06/24 08:14:14;;;;;;;6.43;3.97;;;;;;;24.55;45.46;100504.59;5075535;28;20840;-59
2022/06/24 08:16:39;;;;;;;6.80;3.93;;;;;;;24.51;45.90;100493.25;5093382;28;20859;-60
2022/06/24 08:19:05;;;;;;;5.90;3.50;;;;;;;24.58;45.89;100499.28;5064351;28;20387;-59
2022/06/24 08:21:32;;;;;;;7.13;3.80;;;;;;;24.57;45.52;100495.81;5071294;28;20380;-60
2022/06/24 08:23:58;;;;;;;5.65;3.72;;;;;;;24.57;44.76;100487.91;5067861;28;20394;-59
2022/06/24 08:26:23;;;;;;;7.90;4.20;;;;;;;24.58;45.74;100488.75;5076420;28;20860;-59
2022/06/24 08:28:48;;;;;;;6.13;4.20;;;;;;;24.56;44.92;100485.28;5059426;28;20804;-59
2022/06/24 08:31:14;;;;;;;5.93;4.07;;;;;;;24.57;45.88;100487.03;4826598;22;20434;-60
2022/06/24 08:33:39;;;;;;;5.73;3.90;;;;;;;24.56;45.71;100473.00;5054695;28;20396;-60
2022/06/24 08:36:05;;;;;;;5.88;3.78;;;;;;;24.57;45.28;100460.69;5042166;28;20373;-60
2022/06/24 08:38:34;;;;;;;5.07;3.97;;;;;;;24.57;44.96;100460.69;5044319;28;20399;-60
2022/06/24 08:41:02;;;;;;;5.05;3.88;;;;;;;24.55;45.83;100451.94;5045320;28;20401;-60
2022/06/24 08:43:33;;;;;;;6.13;4.07;;;;;;;24.57;45.79;100451.06;5092869;22;20965;-64
2022/06/24 08:46:00;;;;;;;6.05;3.97;;;;;;;24.53;45.74;100443.19;5072560;28;20461;-63
2022/06/24 08:48:31;;;;;;;6.15;3.80;;;;;;;24.55;45.05;100436.16;5088520;28;20408;-63
2022/06/24 08:50:57;;;;;;;5.43;4.20;;;;;;;24.57;45.16;100423.84;5068147;28;20753;-64
2022/06/24 08:53:33;;;;;;;6.18;4.15;;;;;;;24.59;45.62;100422.06;5067443;28;20400;-65
2022/06/24 08:56:03;;;;;;;5.60;4.03;;;;;;;24.43;45.77;100395.94;5075820;28;20875;-64
2022/06/24 08:58:29;;;;;;;6.40;3.67;;;;;;;24.59;45.02;100419.41;5076402;28;20365;-64
2022/06/24 09:00:54;;;;;;;5.57;3.80;;;;;;;24.58;45.54;100422.94;5075908;28;20460;-64
2022/06/24 09:03:19;;;;;;;5.20;3.40;;;;;;;24.57;45.45;100413.31;5065562;28;20486;-65
2022/06/24 09:05:47;;;;;;;5.15;3.50;;;;;;;24.58;45.71;100404.50;5057858;28;20424;-65
2022/06/24 09:08:14;;;;;;;5.07;3.63;;;;;;;24.59;45.74;100401.00;5069130;28;20404;-65
2022/06/24 09:11:05;;;;;;;5.70;3.95;;;;;;;24.60;45.19;100402.72;5093356;28;20871;-65
2022/06/24 09:13:33;;;;;;;5.97;4.07;;;;;;;24.56;45.16;100395.78;5093139;28;20387;-64
2022/06/24 09:16:06;;;;;;;5.38;3.80;;;;;;;24.54;44.99;100398.44;5074570;28;20379;-65
2022/06/24 09:18:32;;;;;;;4.40;3.23;;;;;;;24.57;45.24;100400.16;5067933;28;20465;-64
2022/06/24 09:20:57;;;;;;;8.90;4.20;;;;;;;24.58;45.11;100399.25;5070513;28;20483;-64
2022/06/24 09:23:23;;;;;;;5.45;3.85;;;;;;;24.58;45.60;100401.88;5063700;28;20451;-64
2022/06/24 09:25:54;;;;;;;5.82;3.90;;;;;;;24.56;45.30;100385.25;5054082;28;20461;-64
2022/06/24 09:28:31;;;;;;;5.53;3.90;;;;;;;24.44;45.40;100366.09;5055266;28;20871;-64
2022/06/24 09:31:00;;;;;;;4.80;3.80;;;;;;;24.58;45.04;100394.00;5055372;28;20416;-63
2022/06/24 09:33:26;;;;;;;4.50;3.60;;;;;;;24.59;45.00;100395.72;5073230;28;20376;-62
2022/06/24 09:36:02;;;;;;;6.05;4.07;;;;;;;24.61;45.12;100386.03;5072360;28;20458;-64
2022/06/24 09:38:28;;;;;;;5.82;4.00;;;;;;;24.60;45.04;100376.41;5086217;28;20401;-65
2022/06/24 09:41:06;;;;;;;4.93;3.60;;;;;;;24.54;44.56;100368.59;5058020;28;20479;-65
2022/06/24 09:43:32;;;;;;;5.03;3.70;;;;;;;24.60;45.15;100382.56;5092874;28;20737;-64
2022/06/24 09:45:58;;;;;;;4.85;3.90;;;;;;;24.61;45.46;100372.88;5071868;28;20399;-64
2022/06/24 09:48:29;;;;;;;4.90;4.10;;;;;;;24.59;45.26;100365.03;5081082;28;20445;-63
2022/06/24 09:51:15;;;;;;;6.15;4.18;;;;;;;24.60;45.51;100366.75;5040808;28;20386;-64
2022/06/24 09:53:43;;;;;;;5.63;3.83;;;;;;;24.58;44.99;100362.41;5049851;28;20380;-64
2022/06/24 09:56:10;;;;;;;5.40;4.28;;;;;;;24.61;44.90;100367.63;5075217;28;20376;-63
2022/06/24 09:58:36;;;;;;;5.63;3.70;;;;;;;24.62;44.75;100364.09;5074692;28;20372;-64
2022/06/24 10:01:05;;;;;;;5.03;3.97;;;;;;;24.62;45.27;100369.34;5073529;28;20540;-64
2022/06/24 10:03:34;;;;;;;4.40;3.90;;;;;;;24.61;45.54;100372.88;5049174;28;20454;-64
2022/06/24 10:06:02;;;;;;;6.20;4.22;;;;;;;24.61;44.53;100357.09;5073422;28;20919;-64
2022/06/24 10:08:34;;;;;;;4.60;4.10;;;;;;;24.63;45.72;100355.31;5070200;28;20868;-64
2022/06/24 10:11:05;;;;;;;4.75;4.25;;;;;;;24.62;44.75;100358.81;5069596;28;20974;-63
2022/06/24 10:13:32;;;;;;;5.25;4.15;;;;;;;24.63;45.55;100365.84;5070563;28;20757;-64
2022/06/24 10:16:15;;;;;;;5.35;4.10;;;;;;;24.61;44.83;100365.88;5065643;28;20383;-64
2022/06/24 10:18:43;;;;;;;6.07;3.88;;;;;;;24.55;44.71;100350.16;5073063;28;20384;-65
2022/06/24 10:21:10;;;;;;;4.35;3.95;;;;;;;24.64;45.25;100378.09;5047650;28;20397;-63
2022/06/24 10:23:45;;;;;;;5.13;4.50;;;;;;;24.64;45.14;100362.31;5041042;28;20821;-65
2022/06/24 10:26:24;;;;;;;5.80;4.30;;;;;;;24.65;44.84;100371.94;5070517;28;20382;-64
2022/06/24 10:29:03;;;;;;;6.78;4.93;;;;;;;24.65;45.20;100374.59;5071675;28;20390;-63
2022/06/24 10:31:37;;;;;;;5.97;3.85;;;;;;;24.61;45.02;100367.63;5075588;28;20964;-64
2022/06/24 10:34:05;;;;;;;5.05;3.92;;;;;;;24.65;45.20;100353.53;5091039;28;20911;-64
2022/06/24 10:36:31;;;;;;;5.00;4.15;;;;;;;24.62;45.64;100353.56;5067911;28;20403;-64
2022/06/24 10:39:08;;;;;;;5.20;4.40;;;;;;;24.67;45.25;100361.41;5070125;28;20399;-64
2022/06/24 10:41:38;;;;;;;5.22;4.10;;;;;;;24.68;44.89;100360.53;5062412;28;20397;-64
2022/06/24 10:44:23;;;;;;;4.80;4.22;;;;;;;24.68;44.66;100357.88;5067324;28;20875;-65
2022/06/24 10:47:15;;;;;;;6.18;4.00;;;;;;;24.67;45.01;100357.00;5073513;28;20367;-64
2022/06/24 10:49:50;;;;;;;4.93;4.13;;;;;;;24.68;44.92;100350.00;5072115;28;20370;-66
2022/06/24 10:52:35;;;;;;;5.57;4.20;;;;;;;24.69;44.67;100347.31;5091669;28;20373;-65
2022/06/24 10:55:15;;;;;;;5.22;4.10;;;;;;;24.67;45.13;100351.72;5056305;28;20384;-64
2022/06/24 10:57:45;;;;;;;6.03;4.30;;;;;;;24.60;45.23;100329.03;5065163;28;20377;-65
2022/06/24 11:00:15;;;;;;;5.75;4.18;;;;;;;24.68;44.72;100327.16;5057035;28;20361;-65
2022/06/24 11:02:43;;;;;;;6.55;4.65;;;;;;;24.58;45.53;100315.91;5073479;28;20438;-64
2022/06/24 11:05:13;;;;;;;6.43;4.67;;;;;;;24.68;44.93;100337.69;5071654;28;20428;-64
2022/06/24 11:07:49;;;;;;;5.00;4.20;;;;;;;24.69;44.87;100330.66;5072345;28;20803;-64
2022/06/24 11:10:26;;;;;;;4.90;3.97;;;;;;;24.70;45.52;100325.38;5060346;28;20366;-65
2022/06/24 11:12:54;;;;;;;5.33;4.20;;;;;;;24.71;45.38;100332.38;5053748;28;20378;-65
2022/06/24 11:15:38;;;;;;;4.93;4.25;;;;;;;24.69;45.26;100323.63;5071245;28;20393;-64
2022/06/24 11:18:05;;;;;;;6.40;5.10;;;;;;;24.72;45.34;100318.31;5053529;28;20382;-65
2022/06/24 11:20:30;;;;;;;4.65;4.00;;;;;;;24.71;45.75;100311.31;5060526;28;20384;-65
2022/06/24 11:22:55;;;;;;;5.17;4.10;;;;;;;24.72;45.04;100315.69;5080451;28;20385;-64
2022/06/24 11:25:22;;;;;;;6.40;4.20;;;;;;;24.63;44.79;100297.38;5053357;28;20802;-64
2022/06/24 11:27:48;;;;;;;4.80;4.30;;;;;;;24.74;45.60;100320.97;5036589;28;20378;-64
2022/06/24 11:30:13;;;;;;;5.33;4.23;;;;;;;24.72;45.40;100302.50;5070860;28;20373;-64
2022/06/24 11:32:59;;;;;;;5.40;4.38;;;;;;;24.74;45.01;100311.28;5052992;28;20378;-63
2022/06/24 11:35:25;;;;;;;5.15;4.20;;;;;;;24.76;45.19;100304.22;5062426;28;20413;-63
2022/06/24 11:37:53;;;;;;;4.90;4.38;;;;;;;24.76;45.23;100314.78;5044209;28;20388;-65
2022/06/24 11:40:21;;;;;;;5.85;4.05;;;;;;;24.76;44.58;100304.22;5053110;28;20382;-64
2022/06/24 11:42:46;;;;;;;5.05;4.50;;;;;;;24.77;45.30;100298.06;5036010;28;20402;-64